sensor_id;sensor_type;location;lat;lon;timestamp;P1;durP1;ratioP1;P2;durP2;ratioP2
72198;SDS011;60103;51.014;16.992;2023-05-10T00:01:26;11.60;;;5.10;;
72198;SDS011;60103;51.014;16.992;2023-05-10T00:03:55;12.20;;;5.10;;
72198;SDS011;60103;51.014;16.992;2023-05-10T00:06:24;11.80;;;4.80;;
72198;SDS011;60103;51.014;16.992;2023-05-10T00:08:53;12.20;;;5.00;;
72198;SDS011;60103;51.014;16.992;2023-05-10T00:11:23;10.80;;;4.70;;
72198;SDS011;60103;51.014;16.992;2023-05-10T00:13:53;11.80;;;5.30;;
72198;SDS011;60103;51.014;16.992;2023-05-10T00:16:22;12.20;;;4.90;;
72198;SDS011;60103;51.014;16.992;2023-05-10T00:18:51;10.40;;;4.20;;
72198;SDS011;60103;51.014;16.992;2023-05-10T00:21:20;11.70;;;4.50;;
72198;SDS011;60103;51.014;16.992;2023-05-10T00:23:49;9.60;;;3.50;;
72198;SDS011;60103;51.014;16.992;2023-05-10T00:26:18;11.20;;;4.50;;
72198;SDS011;60103;51.014;16.992;2023-05-10T00:28:48;10.50;;;3.90;;
72198;SDS011;60103;51.014;16.992;2023-05-10T00:31:18;10.30;;;4.40;;
72198;SDS011;60103;51.014;16.992;2023-05-10T00:33:48;11.10;;;4.10;;
72198;SDS011;60103;51.014;16.992;2023-05-10T00:36:17;8.50;;;3.60;;
72198;SDS011;60103;51.014;16.992;2023-05-10T00:38:46;9.50;;;4.00;;
72198;SDS011;60103;51.014;16.992;2023-05-10T00:41:15;11.20;;;4.00;;
72198;SDS011;60103;51.014;16.992;2023-05-10T00:43:45;11.30;;;4.40;;
72198;SDS011;60103;51.014;16.992;2023-05-10T00:46:14;9.30;;;3.40;;
72198;SDS011;60103;51.014;16.992;2023-05-10T00:48:44;11.80;;;5.00;;
72198;SDS011;60103;51.014;16.992;2023-05-10T00:51:14;13.10;;;4.90;;
72198;SDS011;60103;51.014;16.992;2023-05-10T00:53:44;11.60;;;4.70;;
72198;SDS011;60103;51.014;16.992;2023-05-10T00:56:14;12.80;;;5.20;;
72198;SDS011;60103;51.014;16.992;2023-05-10T00:58:44;12.80;;;5.20;;
72198;SDS011;60103;51.014;16.992;2023-05-10T01:01:13;12.00;;;4.20;;
72198;SDS011;60103;51.014;16.992;2023-05-10T01:03:43;11.30;;;4.00;;
72198;SDS011;60103;51.014;16.992;2023-05-10T01:06:12;11.80;;;4.50;;
72198;SDS011;60103;51.014;16.992;2023-05-10T01:08:41;11.00;;;4.50;;
72198;SDS011;60103;51.014;16.992;2023-05-10T01:11:12;11.00;;;4.40;;
72198;SDS011;60103;51.014;16.992;2023-05-10T01:13:42;11.90;;;5.00;;
72198;SDS011;60103;51.014;16.992;2023-05-10T01:16:11;12.00;;;4.60;;
72198;SDS011;60103;51.014;16.992;2023-05-10T01:18:40;10.90;;;5.10;;
72198;SDS011;60103;51.014;16.992;2023-05-10T01:35:40;11.00;;;4.70;;
72198;SDS011;60103;51.014;16.992;2023-05-10T01:40:52;11.90;;;5.00;;
72198;SDS011;60103;51.014;16.992;2023-05-10T01:43:30;13.00;;;4.70;;
72198;SDS011;60103;51.014;16.992;2023-05-10T01:46:07;11.60;;;4.90;;
72198;SDS011;60103;51.014;16.992;2023-05-10T01:48:42;11.30;;;4.70;;
72198;SDS011;60103;51.014;16.992;2023-05-10T01:51:16;10.90;;;5.10;;
72198;SDS011;60103;51.014;16.992;2023-05-10T01:53:48;11.40;;;4.30;;
72198;SDS011;60103;51.014;16.992;2023-05-10T01:56:21;12.10;;;4.80;;
72198;SDS011;60103;51.014;16.992;2023-05-10T01:58:54;13.20;;;5.00;;
72198;SDS011;60103;51.014;16.992;2023-05-10T02:01:24;11.40;;;4.60;;
72198;SDS011;60103;51.014;16.992;2023-05-10T02:03:54;13.70;;;5.00;;
72198;SDS011;60103;51.014;16.992;2023-05-10T02:06:24;12.40;;;4.10;;
72198;SDS011;60103;51.014;16.992;2023-05-10T02:08:53;11.60;;;4.30;;
72198;SDS011;60103;51.014;16.992;2023-05-10T02:11:24;10.50;;;4.00;;
72198;SDS011;60103;51.014;16.992;2023-05-10T02:13:53;10.80;;;4.50;;
72198;SDS011;60103;51.014;16.992;2023-05-10T02:16:26;12.20;;;4.50;;
72198;SDS011;60103;51.014;16.992;2023-05-10T02:18:55;10.90;;;4.30;;
72198;SDS011;60103;51.014;16.992;2023-05-10T02:21:24;11.60;;;4.70;;
72198;SDS011;60103;51.014;16.992;2023-05-10T02:23:56;12.10;;;4.90;;
72198;SDS011;60103;51.014;16.992;2023-05-10T02:26:25;13.60;;;5.60;;
72198;SDS011;60103;51.014;16.992;2023-05-10T02:28:55;12.60;;;5.10;;
72198;SDS011;60103;51.014;16.992;2023-05-10T02:31:25;13.30;;;5.10;;
72198;SDS011;60103;51.014;16.992;2023-05-10T02:33:54;11.30;;;4.60;;
72198;SDS011;60103;51.014;16.992;2023-05-10T02:36:23;9.70;;;3.50;;
72198;SDS011;60103;51.014;16.992;2023-05-10T02:38:53;11.60;;;5.30;;
72198;SDS011;60103;51.014;16.992;2023-05-10T02:41:23;11.00;;;4.30;;
72198;SDS011;60103;51.014;16.992;2023-05-10T02:43:55;10.80;;;4.30;;
72198;SDS011;60103;51.014;16.992;2023-05-10T02:46:28;13.00;;;5.10;;
72198;SDS011;60103;51.014;16.992;2023-05-10T02:48:57;11.30;;;4.70;;
72198;SDS011;60103;51.014;16.992;2023-05-10T02:51:28;12.50;;;5.20;;
72198;SDS011;60103;51.014;16.992;2023-05-10T02:54:06;14.90;;;4.70;;
72198;SDS011;60103;51.014;16.992;2023-05-10T02:56:40;11.30;;;4.80;;
72198;SDS011;60103;51.014;16.992;2023-05-10T02:59:13;11.30;;;4.30;;
72198;SDS011;60103;51.014;16.992;2023-05-10T03:01:42;11.50;;;4.30;;
72198;SDS011;60103;51.014;16.992;2023-05-10T03:04:11;11.80;;;4.50;;
72198;SDS011;60103;51.014;16.992;2023-05-10T03:06:40;12.70;;;5.40;;
72198;SDS011;60103;51.014;16.992;2023-05-10T03:09:09;12.30;;;5.10;;
72198;SDS011;60103;51.014;16.992;2023-05-10T03:16:58;13.80;;;5.30;;
72198;SDS011;60103;51.014;16.992;2023-05-10T03:19:36;13.30;;;5.30;;
72198;SDS011;60103;51.014;16.992;2023-05-10T03:22:12;12.50;;;4.80;;
72198;SDS011;60103;51.014;16.992;2023-05-10T03:24:41;10.30;;;3.90;;
72198;SDS011;60103;51.014;16.992;2023-05-10T03:27:10;14.40;;;5.90;;
72198;SDS011;60103;51.014;16.992;2023-05-10T03:29:40;11.70;;;4.70;;
72198;SDS011;60103;51.014;16.992;2023-05-10T03:32:09;12.70;;;4.70;;
72198;SDS011;60103;51.014;16.992;2023-05-10T03:34:41;12.30;;;4.60;;
72198;SDS011;60103;51.014;16.992;2023-05-10T03:37:11;12.30;;;4.90;;
72198;SDS011;60103;51.014;16.992;2023-05-10T03:39:40;12.50;;;5.10;;
72198;SDS011;60103;51.014;16.992;2023-05-10T03:42:10;12.10;;;4.80;;
72198;SDS011;60103;51.014;16.992;2023-05-10T03:44:40;12.30;;;5.10;;
72198;SDS011;60103;51.014;16.992;2023-05-10T03:47:10;12.80;;;4.70;;
72198;SDS011;60103;51.014;16.992;2023-05-10T03:49:38;16.10;;;5.40;;
72198;SDS011;60103;51.014;16.992;2023-05-10T03:52:07;10.90;;;4.40;;
72198;SDS011;60103;51.014;16.992;2023-05-10T03:54:36;13.00;;;5.20;;
72198;SDS011;60103;51.014;16.992;2023-05-10T03:57:05;11.40;;;4.90;;
72198;SDS011;60103;51.014;16.992;2023-05-10T03:59:35;12.80;;;4.80;;
72198;SDS011;60103;51.014;16.992;2023-05-10T04:02:03;12.30;;;5.10;;
72198;SDS011;60103;51.014;16.992;2023-05-10T04:04:32;14.30;;;6.10;;
72198;SDS011;60103;51.014;16.992;2023-05-10T04:07:01;11.80;;;4.40;;
72198;SDS011;60103;51.014;16.992;2023-05-10T04:09:30;12.00;;;4.90;;
72198;SDS011;60103;51.014;16.992;2023-05-10T04:11:59;13.00;;;5.30;;
72198;SDS011;60103;51.014;16.992;2023-05-10T04:14:31;12.30;;;5.50;;
72198;SDS011;60103;51.014;16.992;2023-05-10T04:16:59;11.10;;;4.90;;
72198;SDS011;60103;51.014;16.992;2023-05-10T04:19:32;13.10;;;5.30;;
72198;SDS011;60103;51.014;16.992;2023-05-10T04:22:02;13.00;;;5.10;;
72198;SDS011;60103;51.014;16.992;2023-05-10T04:24:31;15.20;;;5.40;;
72198;SDS011;60103;51.014;16.992;2023-05-10T04:27:00;13.20;;;5.20;;
72198;SDS011;60103;51.014;16.992;2023-05-10T04:29:28;12.40;;;5.40;;
72198;SDS011;60103;51.014;16.992;2023-05-10T04:31:57;13.00;;;5.10;;
72198;SDS011;60103;51.014;16.992;2023-05-10T04:34:29;13.30;;;5.40;;
72198;SDS011;60103;51.014;16.992;2023-05-10T04:36:58;14.90;;;5.90;;
72198;SDS011;60103;51.014;16.992;2023-05-10T04:39:26;10.70;;;4.50;;
72198;SDS011;60103;51.014;16.992;2023-05-10T04:41:55;13.70;;;5.20;;
72198;SDS011;60103;51.014;16.992;2023-05-10T04:44:24;12.40;;;5.40;;
72198;SDS011;60103;51.014;16.992;2023-05-10T04:46:53;17.90;;;5.80;;
72198;SDS011;60103;51.014;16.992;2023-05-10T04:49:23;12.90;;;5.20;;
72198;SDS011;60103;51.014;16.992;2023-05-10T04:51:53;12.80;;;4.90;;
72198;SDS011;60103;51.014;16.992;2023-05-10T04:54:23;14.10;;;5.50;;
72198;SDS011;60103;51.014;16.992;2023-05-10T04:56:52;12.80;;;5.40;;
72198;SDS011;60103;51.014;16.992;2023-05-10T04:59:21;13.30;;;5.80;;
72198;SDS011;60103;51.014;16.992;2023-05-10T05:01:50;13.40;;;4.90;;
72198;SDS011;60103;51.014;16.992;2023-05-10T05:04:19;13.10;;;5.50;;
72198;SDS011;60103;51.014;16.992;2023-05-10T05:06:48;12.20;;;4.70;;
72198;SDS011;60103;51.014;16.992;2023-05-10T05:09:20;12.00;;;5.30;;
72198;SDS011;60103;51.014;16.992;2023-05-10T05:11:49;13.20;;;5.10;;
72198;SDS011;60103;51.014;16.992;2023-05-10T05:14:18;11.90;;;4.00;;
72198;SDS011;60103;51.014;16.992;2023-05-10T05:16:49;10.90;;;4.00;;
72198;SDS011;60103;51.014;16.992;2023-05-10T05:19:18;12.40;;;4.60;;
72198;SDS011;60103;51.014;16.992;2023-05-10T05:21:47;12.50;;;4.40;;
72198;SDS011;60103;51.014;16.992;2023-05-10T05:24:15;13.80;;;5.30;;
72198;SDS011;60103;51.014;16.992;2023-05-10T05:26:45;12.30;;;4.50;;
72198;SDS011;60103;51.014;16.992;2023-05-10T05:29:14;10.10;;;4.10;;
72198;SDS011;60103;51.014;16.992;2023-05-10T05:31:43;12.00;;;4.30;;
72198;SDS011;60103;51.014;16.992;2023-05-10T05:34:12;12.20;;;5.00;;
72198;SDS011;60103;51.014;16.992;2023-05-10T05:36:41;12.60;;;4.70;;
72198;SDS011;60103;51.014;16.992;2023-05-10T05:39:11;12.90;;;4.30;;
72198;SDS011;60103;51.014;16.992;2023-05-10T05:41:40;9.90;;;4.20;;
72198;SDS011;60103;51.014;16.992;2023-05-10T05:44:09;10.70;;;4.20;;
72198;SDS011;60103;51.014;16.992;2023-05-10T05:46:38;10.10;;;4.00;;
72198;SDS011;60103;51.014;16.992;2023-05-10T05:49:06;10.40;;;3.70;;
72198;SDS011;60103;51.014;16.992;2023-05-10T05:51:35;11.00;;;4.90;;
72198;SDS011;60103;51.014;16.992;2023-05-10T05:54:04;11.90;;;4.40;;
72198;SDS011;60103;51.014;16.992;2023-05-10T05:56:33;10.50;;;4.80;;
72198;SDS011;60103;51.014;16.992;2023-05-10T05:59:02;12.00;;;4.70;;
72198;SDS011;60103;51.014;16.992;2023-05-10T06:01:31;11.90;;;4.10;;
72198;SDS011;60103;51.014;16.992;2023-05-10T06:04:00;11.50;;;4.20;;
72198;SDS011;60103;51.014;16.992;2023-05-10T06:06:29;10.80;;;4.30;;
72198;SDS011;60103;51.014;16.992;2023-05-10T06:08:58;10.00;;;3.70;;
72198;SDS011;60103;51.014;16.992;2023-05-10T06:11:28;11.60;;;4.20;;
72198;SDS011;60103;51.014;16.992;2023-05-10T06:13:59;11.00;;;4.00;;
72198;SDS011;60103;51.014;16.992;2023-05-10T06:16:29;10.30;;;4.00;;
72198;SDS011;60103;51.014;16.992;2023-05-10T06:18:58;10.90;;;3.90;;
72198;SDS011;60103;51.014;16.992;2023-05-10T06:21:27;10.00;;;4.10;;
72198;SDS011;60103;51.014;16.992;2023-05-10T06:23:57;10.20;;;4.00;;
72198;SDS011;60103;51.014;16.992;2023-05-10T06:26:25;11.10;;;4.60;;
72198;SDS011;60103;51.014;16.992;2023-05-10T06:28:54;10.20;;;3.70;;
72198;SDS011;60103;51.014;16.992;2023-05-10T06:31:23;10.90;;;4.50;;
72198;SDS011;60103;51.014;16.992;2023-05-10T06:33:52;11.80;;;4.50;;
72198;SDS011;60103;51.014;16.992;2023-05-10T06:36:23;13.20;;;4.10;;
72198;SDS011;60103;51.014;16.992;2023-05-10T06:38:54;12.10;;;4.40;;
72198;SDS011;60103;51.014;16.992;2023-05-10T06:41:23;10.80;;;4.10;;
72198;SDS011;60103;51.014;16.992;2023-05-10T06:43:52;11.30;;;4.00;;
72198;SDS011;60103;51.014;16.992;2023-05-10T06:46:21;10.00;;;3.30;;
72198;SDS011;60103;51.014;16.992;2023-05-10T06:48:50;10.20;;;4.00;;
72198;SDS011;60103;51.014;16.992;2023-05-10T06:51:18;10.20;;;3.60;;
72198;SDS011;60103;51.014;16.992;2023-05-10T06:53:49;11.60;;;4.10;;
72198;SDS011;60103;51.014;16.992;2023-05-10T06:56:18;9.50;;;3.30;;
72198;SDS011;60103;51.014;16.992;2023-05-10T06:58:49;11.00;;;3.70;;
72198;SDS011;60103;51.014;16.992;2023-05-10T07:01:18;10.00;;;3.90;;
72198;SDS011;60103;51.014;16.992;2023-05-10T07:03:47;9.90;;;3.60;;
72198;SDS011;60103;51.014;16.992;2023-05-10T07:06:16;8.60;;;3.60;;
72198;SDS011;60103;51.014;16.992;2023-05-10T07:09:00;8.30;;;3.10;;
72198;SDS011;60103;51.014;16.992;2023-05-10T07:11:29;8.50;;;3.00;;
72198;SDS011;60103;51.014;16.992;2023-05-10T07:13:58;8.40;;;3.00;;
72198;SDS011;60103;51.014;16.992;2023-05-10T07:16:28;11.40;;;3.50;;
72198;SDS011;60103;51.014;16.992;2023-05-10T07:18:57;9.50;;;3.40;;
72198;SDS011;60103;51.014;16.992;2023-05-10T07:21:26;9.80;;;3.40;;
72198;SDS011;60103;51.014;16.992;2023-05-10T07:23:57;9.10;;;3.60;;
72198;SDS011;60103;51.014;16.992;2023-05-10T07:26:25;9.50;;;3.30;;
72198;SDS011;60103;51.014;16.992;2023-05-10T07:28:54;9.30;;;3.10;;
72198;SDS011;60103;51.014;16.992;2023-05-10T07:31:23;9.10;;;3.40;;
72198;SDS011;60103;51.014;16.992;2023-05-10T07:33:52;9.80;;;3.40;;
72198;SDS011;60103;51.014;16.992;2023-05-10T07:36:21;7.80;;;3.00;;
72198;SDS011;60103;51.014;16.992;2023-05-10T07:38:50;8.50;;;2.80;;
72198;SDS011;60103;51.014;16.992;2023-05-10T07:41:19;8.90;;;2.80;;
72198;SDS011;60103;51.014;16.992;2023-05-10T07:43:50;7.70;;;2.90;;
72198;SDS011;60103;51.014;16.992;2023-05-10T07:46:19;7.80;;;2.90;;
72198;SDS011;60103;51.014;16.992;2023-05-10T07:48:49;10.40;;;4.00;;
72198;SDS011;60103;51.014;16.992;2023-05-10T07:51:18;8.00;;;3.00;;
72198;SDS011;60103;51.014;16.992;2023-05-10T07:53:47;10.10;;;2.50;;
72198;SDS011;60103;51.014;16.992;2023-05-10T07:56:25;8.10;;;3.10;;
72198;SDS011;60103;51.014;16.992;2023-05-10T07:58:58;6.80;;;2.40;;
72198;SDS011;60103;51.014;16.992;2023-05-10T08:01:30;8.00;;;2.40;;
72198;SDS011;60103;51.014;16.992;2023-05-10T08:03:59;6.70;;;2.10;;
72198;SDS011;60103;51.014;16.992;2023-05-10T08:06:29;8.90;;;2.90;;
72198;SDS011;60103;51.014;16.992;2023-05-10T08:08:59;7.50;;;2.50;;
72198;SDS011;60103;51.014;16.992;2023-05-10T08:11:28;6.40;;;2.10;;
72198;SDS011;60103;51.014;16.992;2023-05-10T08:13:58;6.80;;;2.30;;
72198;SDS011;60103;51.014;16.992;2023-05-10T08:16:27;7.10;;;2.40;;
72198;SDS011;60103;51.014;16.992;2023-05-10T08:18:57;9.20;;;2.70;;
72198;SDS011;60103;51.014;16.992;2023-05-10T08:21:26;8.10;;;2.70;;
72198;SDS011;60103;51.014;16.992;2023-05-10T08:23:55;7.80;;;2.40;;
72198;SDS011;60103;51.014;16.992;2023-05-10T08:26:24;7.90;;;2.50;;
72198;SDS011;60103;51.014;16.992;2023-05-10T08:28:53;7.30;;;2.50;;
72198;SDS011;60103;51.014;16.992;2023-05-10T08:31:22;9.40;;;2.40;;
72198;SDS011;60103;51.014;16.992;2023-05-10T08:33:51;7.70;;;2.10;;
72198;SDS011;60103;51.014;16.992;2023-05-10T08:36:22;7.00;;;2.30;;
72198;SDS011;60103;51.014;16.992;2023-05-10T08:38:53;8.80;;;2.50;;
72198;SDS011;60103;51.014;16.992;2023-05-10T08:41:23;10.20;;;2.60;;
72198;SDS011;60103;51.014;16.992;2023-05-10T08:43:54;6.60;;;2.10;;
72198;SDS011;60103;51.014;16.992;2023-05-10T08:46:23;7.00;;;2.20;;
72198;SDS011;60103;51.014;16.992;2023-05-10T08:48:52;7.30;;;2.50;;
72198;SDS011;60103;51.014;16.992;2023-05-10T08:51:24;6.80;;;2.30;;
72198;SDS011;60103;51.014;16.992;2023-05-10T08:53:56;8.10;;;2.40;;
72198;SDS011;60103;51.014;16.992;2023-05-10T08:56:25;8.70;;;2.40;;
72198;SDS011;60103;51.014;16.992;2023-05-10T08:58:56;7.20;;;2.30;;
72198;SDS011;60103;51.014;16.992;2023-05-10T09:01:25;9.40;;;2.60;;
72198;SDS011;60103;51.014;16.992;2023-05-10T09:03:55;7.20;;;2.00;;
72198;SDS011;60103;51.014;16.992;2023-05-10T09:06:27;6.60;;;2.30;;
72198;SDS011;60103;51.014;16.992;2023-05-10T09:08:57;8.00;;;2.70;;
72198;SDS011;60103;51.014;16.992;2023-05-10T09:11:26;8.00;;;2.40;;
72198;SDS011;60103;51.014;16.992;2023-05-10T09:13:57;7.10;;;2.00;;
72198;SDS011;60103;51.014;16.992;2023-05-10T09:16:26;7.30;;;2.20;;
72198;SDS011;60103;51.014;16.992;2023-05-10T09:18:55;7.20;;;2.30;;
72198;SDS011;60103;51.014;16.992;2023-05-10T09:21:24;7.40;;;2.70;;
72198;SDS011;60103;51.014;16.992;2023-05-10T09:23:56;7.30;;;2.50;;
72198;SDS011;60103;51.014;16.992;2023-05-10T09:26:25;8.40;;;2.30;;
72198;SDS011;60103;51.014;16.992;2023-05-10T09:28:55;7.40;;;2.50;;
72198;SDS011;60103;51.014;16.992;2023-05-10T09:31:42;8.50;;;2.90;;
72198;SDS011;60103;51.014;16.992;2023-05-10T09:34:17;7.40;;;2.90;;
72198;SDS011;60103;51.014;16.992;2023-05-10T09:36:50;6.60;;;2.00;;
72198;SDS011;60103;51.014;16.992;2023-05-10T09:39:29;7.30;;;2.50;;
72198;SDS011;60103;51.014;16.992;2023-05-10T09:42:04;7.50;;;2.00;;
72198;SDS011;60103;51.014;16.992;2023-05-10T09:44:35;7.00;;;2.40;;
72198;SDS011;60103;51.014;16.992;2023-05-10T09:47:11;8.80;;;2.30;;
72198;SDS011;60103;51.014;16.992;2023-05-10T09:49:49;7.20;;;2.40;;
72198;SDS011;60103;51.014;16.992;2023-05-10T09:52:19;8.00;;;2.10;;
72198;SDS011;60103;51.014;16.992;2023-05-10T09:54:54;7.30;;;2.50;;
72198;SDS011;60103;51.014;16.992;2023-05-10T09:57:23;6.70;;;2.10;;
72198;SDS011;60103;51.014;16.992;2023-05-10T09:59:55;7.70;;;2.40;;
72198;SDS011;60103;51.014;16.992;2023-05-10T10:02:28;7.50;;;2.30;;
72198;SDS011;60103;51.014;16.992;2023-05-10T10:04:57;7.00;;;2.00;;
72198;SDS011;60103;51.014;16.992;2023-05-10T10:07:32;7.90;;;2.60;;
72198;SDS011;60103;51.014;16.992;2023-05-10T10:10:01;7.10;;;2.70;;
72198;SDS011;60103;51.014;16.992;2023-05-10T10:12:31;7.70;;;2.40;;
72198;SDS011;60103;51.014;16.992;2023-05-10T10:15:00;9.30;;;2.80;;
72198;SDS011;60103;51.014;16.992;2023-05-10T10:17:29;7.00;;;2.20;;
72198;SDS011;60103;51.014;16.992;2023-05-10T10:19:58;7.30;;;2.30;;
72198;SDS011;60103;51.014;16.992;2023-05-10T10:22:30;9.20;;;2.30;;
72198;SDS011;60103;51.014;16.992;2023-05-10T10:24:59;7.40;;;2.80;;
72198;SDS011;60103;51.014;16.992;2023-05-10T10:27:33;7.20;;;2.20;;
72198;SDS011;60103;51.014;16.992;2023-05-10T10:30:25;10.20;;;2.60;;
72198;SDS011;60103;51.014;16.992;2023-05-10T10:36:22;8.00;;;2.90;;
72198;SDS011;60103;51.014;16.992;2023-05-10T10:41:31;8.00;;;2.60;;
72198;SDS011;60103;51.014;16.992;2023-05-10T10:47:07;6.00;;;2.00;;
72198;SDS011;60103;51.014;16.992;2023-05-10T10:52:27;8.70;;;2.50;;
72198;SDS011;60103;51.014;16.992;2023-05-10T10:55:02;8.40;;;2.50;;
72198;SDS011;60103;51.014;16.992;2023-05-10T10:57:44;9.00;;;2.40;;
72198;SDS011;60103;51.014;16.992;2023-05-10T11:00:32;7.40;;;2.30;;
72198;SDS011;60103;51.014;16.992;2023-05-10T11:03:05;6.60;;;2.40;;
72198;SDS011;60103;51.014;16.992;2023-05-10T11:05:36;6.40;;;2.10;;
72198;SDS011;60103;51.014;16.992;2023-05-10T11:13:28;7.40;;;1.90;;
72198;SDS011;60103;51.014;16.992;2023-05-10T11:15:58;9.80;;;2.60;;
72198;SDS011;60103;51.014;16.992;2023-05-10T11:18:30;7.10;;;2.00;;
72198;SDS011;60103;51.014;16.992;2023-05-10T11:21:00;7.40;;;2.10;;
72198;SDS011;60103;51.014;16.992;2023-05-10T11:26:09;7.20;;;2.20;;
72198;SDS011;60103;51.014;16.992;2023-05-10T11:28:46;6.20;;;1.70;;
72198;SDS011;60103;51.014;16.992;2023-05-10T11:31:17;5.50;;;1.80;;
72198;SDS011;60103;51.014;16.992;2023-05-10T11:33:47;6.30;;;2.00;;
72198;SDS011;60103;51.014;16.992;2023-05-10T11:36:18;5.40;;;1.80;;
72198;SDS011;60103;51.014;16.992;2023-05-10T11:38:54;6.20;;;1.70;;
72198;SDS011;60103;51.014;16.992;2023-05-10T11:41:24;6.30;;;1.90;;
72198;SDS011;60103;51.014;16.992;2023-05-10T11:43:54;6.70;;;1.80;;
72198;SDS011;60103;51.014;16.992;2023-05-10T11:46:24;6.60;;;1.90;;
72198;SDS011;60103;51.014;16.992;2023-05-10T11:49:03;6.10;;;1.90;;
72198;SDS011;60103;51.014;16.992;2023-05-10T11:51:36;7.70;;;2.10;;
72198;SDS011;60103;51.014;16.992;2023-05-10T11:54:06;7.60;;;2.00;;
72198;SDS011;60103;51.014;16.992;2023-05-10T11:56:39;6.30;;;2.10;;
72198;SDS011;60103;51.014;16.992;2023-05-10T11:59:09;6.10;;;1.90;;
72198;SDS011;60103;51.014;16.992;2023-05-10T12:01:38;5.80;;;2.00;;
72198;SDS011;60103;51.014;16.992;2023-05-10T12:04:08;5.80;;;1.90;;
72198;SDS011;60103;51.014;16.992;2023-05-10T12:06:39;6.20;;;2.10;;
72198;SDS011;60103;51.014;16.992;2023-05-10T12:09:09;8.20;;;2.10;;
72198;SDS011;60103;51.014;16.992;2023-05-10T12:11:39;6.90;;;1.80;;
72198;SDS011;60103;51.014;16.992;2023-05-10T12:14:11;7.40;;;1.80;;
72198;SDS011;60103;51.014;16.992;2023-05-10T12:16:40;6.80;;;2.20;;
72198;SDS011;60103;51.014;16.992;2023-05-10T12:19:11;7.60;;;1.90;;
72198;SDS011;60103;51.014;16.992;2023-05-10T12:21:41;6.50;;;1.60;;
72198;SDS011;60103;51.014;16.992;2023-05-10T12:24:09;7.00;;;2.10;;
72198;SDS011;60103;51.014;16.992;2023-05-10T12:26:39;5.60;;;1.80;;
72198;SDS011;60103;51.014;16.992;2023-05-10T12:29:25;7.10;;;1.80;;
72198;SDS011;60103;51.014;16.992;2023-05-10T12:31:58;5.90;;;1.90;;
72198;SDS011;60103;51.014;16.992;2023-05-10T12:34:31;5.60;;;1.80;;
72198;SDS011;60103;51.014;16.992;2023-05-10T12:37:03;6.50;;;2.00;;
72198;SDS011;60103;51.014;16.992;2023-05-10T12:39:38;5.90;;;2.00;;
72198;SDS011;60103;51.014;16.992;2023-05-10T12:42:08;5.90;;;1.80;;
72198;SDS011;60103;51.014;16.992;2023-05-10T12:44:37;5.90;;;1.90;;
72198;SDS011;60103;51.014;16.992;2023-05-10T12:47:07;5.10;;;1.60;;
72198;SDS011;60103;51.014;16.992;2023-05-10T12:49:36;10.80;;;1.80;;
72198;SDS011;60103;51.014;16.992;2023-05-10T12:52:04;5.90;;;1.80;;
72198;SDS011;60103;51.014;16.992;2023-05-10T12:54:33;5.80;;;1.80;;
72198;SDS011;60103;51.014;16.992;2023-05-10T12:57:02;7.00;;;1.80;;
72198;SDS011;60103;51.014;16.992;2023-05-10T12:59:31;5.40;;;1.50;;
72198;SDS011;60103;51.014;16.992;2023-05-10T13:01:59;6.20;;;2.00;;
72198;SDS011;60103;51.014;16.992;2023-05-10T13:04:30;5.70;;;1.60;;
72198;SDS011;60103;51.014;16.992;2023-05-10T13:06:59;7.60;;;2.20;;
72198;SDS011;60103;51.014;16.992;2023-05-10T13:09:28;6.90;;;1.70;;
72198;SDS011;60103;51.014;16.992;2023-05-10T13:11:57;7.40;;;1.90;;
72198;SDS011;60103;51.014;16.992;2023-05-10T13:14:26;6.50;;;1.80;;
72198;SDS011;60103;51.014;16.992;2023-05-10T13:16:55;7.00;;;1.60;;
72198;SDS011;60103;51.014;16.992;2023-05-10T13:19:24;7.70;;;1.90;;
72198;SDS011;60103;51.014;16.992;2023-05-10T13:21:54;5.40;;;1.70;;
72198;SDS011;60103;51.014;16.992;2023-05-10T13:24:23;6.60;;;1.90;;
72198;SDS011;60103;51.014;16.992;2023-05-10T13:26:52;4.30;;;1.30;;
72198;SDS011;60103;51.014;16.992;2023-05-10T13:29:20;9.40;;;2.00;;
72198;SDS011;60103;51.014;16.992;2023-05-10T13:31:50;5.70;;;1.70;;
72198;SDS011;60103;51.014;16.992;2023-05-10T13:34:19;6.00;;;1.50;;
72198;SDS011;60103;51.014;16.992;2023-05-10T13:36:48;5.40;;;1.40;;
72198;SDS011;60103;51.014;16.992;2023-05-10T13:39:17;6.00;;;1.60;;
72198;SDS011;60103;51.014;16.992;2023-05-10T13:41:46;6.50;;;1.70;;
72198;SDS011;60103;51.014;16.992;2023-05-10T13:44:15;6.60;;;1.50;;
72198;SDS011;60103;51.014;16.992;2023-05-10T13:46:44;5.90;;;1.70;;
72198;SDS011;60103;51.014;16.992;2023-05-10T13:49:13;5.90;;;2.00;;
72198;SDS011;60103;51.014;16.992;2023-05-10T13:51:43;6.60;;;1.30;;
72198;SDS011;60103;51.014;16.992;2023-05-10T13:54:11;6.40;;;1.90;;
72198;SDS011;60103;51.014;16.992;2023-05-10T13:56:41;6.10;;;1.80;;
72198;SDS011;60103;51.014;16.992;2023-05-10T13:59:10;5.80;;;1.70;;
72198;SDS011;60103;51.014;16.992;2023-05-10T14:01:43;5.80;;;1.60;;
72198;SDS011;60103;51.014;16.992;2023-05-10T14:04:12;7.20;;;1.70;;
72198;SDS011;60103;51.014;16.992;2023-05-10T14:06:41;6.10;;;1.70;;
72198;SDS011;60103;51.014;16.992;2023-05-10T14:09:10;6.10;;;1.80;;
72198;SDS011;60103;51.014;16.992;2023-05-10T14:11:39;6.50;;;1.50;;
72198;SDS011;60103;51.014;16.992;2023-05-10T14:14:11;5.30;;;1.50;;
72198;SDS011;60103;51.014;16.992;2023-05-10T14:16:44;5.10;;;1.50;;
72198;SDS011;60103;51.014;16.992;2023-05-10T14:19:13;7.80;;;1.80;;
72198;SDS011;60103;51.014;16.992;2023-05-10T14:21:42;5.60;;;1.60;;
72198;SDS011;60103;51.014;16.992;2023-05-10T14:24:11;6.50;;;1.80;;
72198;SDS011;60103;51.014;16.992;2023-05-10T14:26:40;4.90;;;1.50;;
72198;SDS011;60103;51.014;16.992;2023-05-10T14:29:08;5.40;;;1.60;;
72198;SDS011;60103;51.014;16.992;2023-05-10T14:31:39;5.50;;;1.50;;
72198;SDS011;60103;51.014;16.992;2023-05-10T14:34:08;4.90;;;1.40;;
72198;SDS011;60103;51.014;16.992;2023-05-10T14:36:37;5.30;;;1.50;;
72198;SDS011;60103;51.014;16.992;2023-05-10T14:39:05;6.90;;;1.60;;
72198;SDS011;60103;51.014;16.992;2023-05-10T14:41:34;6.40;;;1.80;;
72198;SDS011;60103;51.014;16.992;2023-05-10T14:44:03;7.10;;;1.80;;
72198;SDS011;60103;51.014;16.992;2023-05-10T14:46:32;5.10;;;1.60;;
72198;SDS011;60103;51.014;16.992;2023-05-10T14:49:01;7.00;;;2.00;;
72198;SDS011;60103;51.014;16.992;2023-05-10T14:51:30;5.50;;;1.70;;
72198;SDS011;60103;51.014;16.992;2023-05-10T14:53:59;6.80;;;2.00;;
72198;SDS011;60103;51.014;16.992;2023-05-10T14:56:28;6.10;;;1.70;;
72198;SDS011;60103;51.014;16.992;2023-05-10T14:58:57;5.20;;;1.70;;
72198;SDS011;60103;51.014;16.992;2023-05-10T15:01:28;5.70;;;1.60;;
72198;SDS011;60103;51.014;16.992;2023-05-10T15:03:58;5.30;;;1.70;;
72198;SDS011;60103;51.014;16.992;2023-05-10T15:06:30;5.10;;;1.50;;
72198;SDS011;60103;51.014;16.992;2023-05-10T15:09:00;5.50;;;1.80;;
72198;SDS011;60103;51.014;16.992;2023-05-10T15:11:29;7.70;;;1.60;;
72198;SDS011;60103;51.014;16.992;2023-05-10T15:13:58;5.30;;;1.90;;
72198;SDS011;60103;51.014;16.992;2023-05-10T15:16:27;4.20;;;1.50;;
72198;SDS011;60103;51.014;16.992;2023-05-10T15:18:56;5.30;;;1.50;;
72198;SDS011;60103;51.014;16.992;2023-05-10T15:21:25;5.40;;;1.70;;
72198;SDS011;60103;51.014;16.992;2023-05-10T15:23:55;6.90;;;1.90;;
72198;SDS011;60103;51.014;16.992;2023-05-10T15:26:24;5.90;;;1.80;;
72198;SDS011;60103;51.014;16.992;2023-05-10T15:28:54;6.00;;;1.60;;